Naomi, South Dakota
Current Conditions -  °F | °C
As of 7:56 PM on Monday 22 Dec 2014 (Local Time) from KFSD Reporting Station
Light Rain Light Rain  
Wind Chill:   Ceiling: 300
Heat Index:   Visibility: 3mi
Dew Point:   Wind: 3mph
Humidity: 97%   Direction: 60°ENE
Pressure: 29.46"   Gusts: NA
Location:  43.3014°N, 96.8655°W
Report Text: KFSD 230156Z 06003KT 3SM -RA BR OVC003 02/02 A2946 RMK AO2 DZE21RAB21 SLP986 P0000 T00220017
Loading
Personal Weather Stations






























Interactive Weather Map New forecast layout! Learn more

10-Day Weather Forecast

Advertisements
Track Severe Weather on mobile